createdAt,value
2022-11-09T00:00:53.187Z,30.20
2022-11-09T00:03:20.784Z,30.20
2022-11-09T00:05:58.044Z,29.25
2022-11-09T00:08:25.378Z,27.08
2022-11-09T00:10:52.693Z,28.92
2022-11-09T00:13:20.319Z,28.08
2022-11-09T00:15:47.769Z,25.27
2022-11-09T00:18:15.030Z,29.85
2022-11-09T00:20:47.742Z,22.33
2022-11-09T00:23:16.642Z,28.95
2022-11-09T00:25:44.338Z,22.92
2022-11-09T00:28:11.778Z,28.80
2022-11-09T00:30:39.027Z,29.50
2022-11-09T00:33:06.420Z,26.08
2022-11-09T00:35:33.766Z,24.85
2022-11-09T00:38:01.288Z,24.98
2022-11-09T00:40:28.541Z,23.88
2022-11-09T00:42:55.897Z,26.50
2022-11-09T00:45:23.249Z,31.83
2022-11-09T00:47:50.481Z,22.92
2022-11-09T00:50:17.768Z,25.00
2022-11-09T00:52:45.223Z,25.75
2022-11-09T00:55:12.467Z,23.58
2022-11-09T00:57:40.147Z,24.45
2022-11-09T01:00:07.688Z,27.73
2022-11-09T01:02:35.019Z,28.15
2022-11-09T01:05:02.641Z,23.98
2022-11-09T01:07:30.048Z,23.88
2022-11-09T01:09:57.333Z,25.63
2022-11-09T01:12:24.587Z,23.30
2022-11-09T01:14:51.821Z,22.00
2022-11-09T01:17:20.031Z,23.90
2022-11-09T01:19:47.288Z,23.52
2022-11-09T01:22:14.623Z,27.08
2022-11-09T01:24:41.916Z,23.92
2022-11-09T01:27:09.185Z,23.65
2022-11-09T01:29:36.435Z,30.27
2022-11-09T01:32:04.064Z,25.25
2022-11-09T01:34:31.685Z,31.35
2022-11-09T01:36:59.319Z,26.52
2022-11-09T01:39:26.595Z,26.50
2022-11-09T01:41:53.856Z,25.13
2022-11-09T01:44:21.549Z,28.58
2022-11-09T01:47:01.884Z,25.35
2022-11-09T01:49:47.145Z,27.10
2022-11-09T01:52:20.229Z,28.85
2022-11-09T01:54:54.532Z,23.98
2022-11-09T01:57:25.009Z,25.20
2022-11-09T01:59:54.422Z,27.55
2022-11-09T02:02:22.121Z,26.33
2022-11-09T02:05:12.431Z,29.60
2022-11-09T02:07:40.200Z,31.98
2022-11-09T02:10:36.870Z,30.52
2022-11-09T02:13:04.398Z,31.25
2022-11-09T02:15:31.919Z,27.73
2022-11-09T02:17:59.193Z,31.23
2022-11-09T02:20:27.015Z,31.33
2022-11-09T02:22:54.316Z,34.50
2022-11-09T02:25:21.558Z,35.25
2022-11-09T02:27:49.792Z,33.65
2022-11-09T02:30:17.377Z,30.17
2022-11-09T02:32:44.712Z,33.00
2022-11-09T02:35:12.053Z,32.85
2022-11-09T02:37:42.952Z,34.35
2022-11-09T02:40:12.557Z,35.85
2022-11-09T02:42:39.887Z,30.85
2022-11-09T02:45:07.368Z,35.95
2022-11-09T02:47:34.620Z,37.08
2022-11-09T02:50:01.866Z,32.38
2022-11-09T02:52:29.107Z,33.05
2022-11-09T02:54:56.463Z,37.38
2022-11-09T02:57:23.730Z,35.35
2022-11-09T02:59:50.997Z,32.30
2022-11-09T03:02:18.404Z,34.10
2022-11-09T03:04:45.696Z,33.17
2022-11-09T03:07:13.038Z,35.45
2022-11-09T03:09:40.424Z,35.15
2022-11-09T03:12:43.201Z,31.98
2022-11-09T03:15:10.884Z,40.88
2022-11-09T03:17:38.345Z,35.38
2022-11-09T03:20:05.827Z,29.77
2022-11-09T03:22:33.124Z,37.08
2022-11-09T03:25:00.421Z,36.38
2022-11-09T03:27:27.705Z,31.55
2022-11-09T03:29:55.397Z,35.63
2022-11-09T03:32:22.667Z,31.13
2022-11-09T03:34:51.596Z,33.58
2022-11-09T03:37:19.015Z,28.30
2022-11-09T03:39:46.337Z,30.80
2022-11-09T03:42:13.653Z,38.67
2022-11-09T03:44:40.923Z,33.53
2022-11-09T03:47:08.177Z,31.00
2022-11-09T03:49:35.439Z,27.20
2022-11-09T03:52:02.925Z,27.65
2022-11-09T03:54:30.175Z,31.73
2022-11-09T03:56:57.491Z,33.30
2022-11-09T03:59:24.788Z,32.28
2022-11-09T04:01:52.114Z,33.88
2022-11-09T04:04:19.481Z,31.75
2022-11-09T04:06:46.795Z,35.72
2022-11-09T04:09:16.215Z,39.83
2022-11-09T04:11:44.513Z,35.38
2022-11-09T04:14:11.834Z,32.53
2022-11-09T04:16:39.439Z,30.15
2022-11-09T04:19:06.738Z,27.30
2022-11-09T04:21:34.318Z,31.40
2022-11-09T04:24:01.658Z,39.40
2022-11-09T04:26:28.926Z,29.63
2022-11-09T04:28:56.211Z,34.10
2022-11-09T04:31:27.891Z,31.60
2022-11-09T04:33:55.799Z,30.17
2022-11-09T04:36:23.398Z,29.33
2022-11-09T04:38:50.654Z,34.78
2022-11-09T04:41:18.085Z,30.42
2022-11-09T04:43:45.376Z,30.48
2022-11-09T04:46:12.685Z,28.52
2022-11-09T04:48:40.061Z,31.88
2022-11-09T04:51:08.394Z,32.05
2022-11-09T04:53:36.050Z,33.78
2022-11-09T04:56:03.478Z,31.50
2022-11-09T04:58:30.974Z,32.75
2022-11-09T05:01:11.650Z,30.90
2022-11-09T05:03:39.358Z,32.42
2022-11-09T05:06:26.046Z,33.95
2022-11-09T05:08:54.246Z,33.58
2022-11-09T05:11:21.932Z,31.75
2022-11-09T05:13:49.547Z,30.60
2022-11-09T05:16:17.703Z,27.95
2022-11-09T05:18:45.456Z,31.77
2022-11-09T05:21:12.932Z,27.67
2022-11-09T05:23:58.625Z,33.60
2022-11-09T05:26:29.826Z,26.13
2022-11-09T05:31:26.917Z,30.25
2022-11-09T05:33:54.680Z,30.75
2022-11-09T05:36:22.424Z,25.80
2022-11-09T05:38:50.027Z,29.33
2022-11-09T05:41:17.473Z,25.23
2022-11-09T05:43:45.135Z,29.25
2022-11-09T05:46:13.321Z,33.75
2022-11-09T05:48:40.651Z,30.50
2022-11-09T05:51:09.122Z,24.88
2022-11-09T05:53:36.327Z,27.70
2022-11-09T05:56:04.929Z,25.63
2022-11-09T05:58:36.302Z,26.25
2022-11-09T06:01:07.712Z,25.85
2022-11-09T06:03:34.982Z,27.02
2022-11-09T06:06:08.036Z,29.33
2022-11-09T06:08:36.060Z,24.48
2022-11-09T06:11:07.713Z,25.05
2022-11-09T06:13:35.197Z,28.23
2022-11-09T06:16:03.135Z,25.40
2022-11-09T06:18:31.280Z,27.02
2022-11-09T06:20:59.661Z,24.00
2022-11-09T06:23:29.427Z,27.83
2022-11-09T06:25:59.554Z,24.90
2022-11-09T06:28:29.754Z,26.27
2022-11-09T06:31:00.972Z,26.67
2022-11-09T06:35:56.679Z,24.38
2022-11-09T06:38:24.224Z,24.40
2022-11-09T06:40:54.846Z,27.73
2022-11-09T06:43:22.478Z,22.98
2022-11-09T06:45:50.018Z,28.00
2022-11-09T06:48:17.306Z,27.73
2022-11-09T06:50:44.555Z,24.40
2022-11-09T06:53:13.329Z,21.55
2022-11-09T06:55:44.518Z,24.40
2022-11-09T06:58:16.557Z,22.50
2022-11-09T07:00:44.247Z,22.83
2022-11-09T07:03:15.223Z,23.83
2022-11-09T07:05:42.601Z,24.98
2022-11-09T07:08:10.027Z,26.55
2022-11-09T07:10:37.523Z,22.88
2022-11-09T07:13:05.283Z,21.77
2022-11-09T07:15:32.775Z,19.98
2022-11-09T07:18:03.941Z,21.23
2022-11-09T07:22:58.536Z,17.02
2022-11-09T07:25:27.412Z,18.17
2022-11-09T07:27:54.801Z,22.08
2022-11-09T07:30:23.317Z,19.13
2022-11-09T07:35:38.313Z,19.38
2022-11-09T07:38:05.743Z,21.52
2022-11-09T07:40:33.015Z,18.63
2022-11-09T07:43:01.042Z,18.10
2022-11-09T07:45:31.083Z,21.30
2022-11-09T07:48:08.936Z,17.50
2022-11-09T07:50:37.190Z,20.52
2022-11-09T07:53:07.156Z,17.67
2022-11-09T07:55:35.035Z,19.77
2022-11-09T07:58:03.983Z,17.85
2022-11-09T08:00:32.177Z,19.67
2022-11-09T08:02:59.505Z,17.38
2022-11-09T08:05:26.833Z,15.40
2022-11-09T08:08:01.490Z,19.15
2022-11-09T08:10:29.705Z,15.77
2022-11-09T08:12:57.791Z,21.20
2022-11-09T08:15:25.537Z,19.58
2022-11-09T08:17:52.833Z,19.77
2022-11-09T08:20:20.587Z,20.65
2022-11-09T08:22:48.443Z,17.58
2022-11-09T08:25:15.900Z,17.85
2022-11-09T08:27:45.916Z,16.65
2022-11-09T08:30:15.268Z,19.27
2022-11-09T08:32:42.964Z,14.07
2022-11-09T08:35:11.209Z,17.42
2022-11-09T08:37:38.894Z,16.55
2022-11-09T08:40:07.782Z,26.05
2022-11-09T08:42:35.074Z,15.88
2022-11-09T08:45:02.479Z,19.13
2022-11-09T08:47:30.178Z,17.83
2022-11-09T08:49:57.449Z,19.77
2022-11-09T08:52:24.720Z,17.00
2022-11-09T08:54:51.980Z,21.50
2022-11-09T08:57:19.673Z,13.77
2022-11-09T08:59:47.385Z,22.08
2022-11-09T09:02:15.252Z,18.65
2022-11-09T09:04:42.571Z,16.92
2022-11-09T09:07:10.207Z,15.32
2022-11-09T09:09:40.754Z,23.45
2022-11-09T09:12:08.772Z,18.50
2022-11-09T09:14:36.358Z,21.30
2022-11-09T09:17:03.698Z,17.35
2022-11-09T09:19:32.009Z,17.88
2022-11-09T09:21:59.748Z,18.33
2022-11-09T09:24:27.168Z,21.83
2022-11-09T09:26:54.573Z,15.48
2022-11-09T09:29:21.864Z,17.65
2022-11-09T09:31:49.117Z,13.38
2022-11-09T09:34:16.435Z,18.70
2022-11-09T09:36:48.023Z,20.60
2022-11-09T09:39:15.882Z,14.75
2022-11-09T09:41:55.156Z,17.42
2022-11-09T09:44:25.484Z,15.38
2022-11-09T09:47:10.139Z,18.63
2022-11-09T09:49:40.950Z,17.80
2022-11-09T09:52:34.575Z,16.83
2022-11-09T09:55:18.474Z,17.15
2022-11-09T09:57:50.184Z,16.63
2022-11-09T10:00:25.195Z,23.02
2022-11-09T10:02:53.386Z,20.05
2022-11-09T10:05:21.629Z,20.15
2022-11-09T10:08:11.302Z,18.60
2022-11-09T10:10:54.096Z,15.73
2022-11-09T10:13:47.553Z,19.13
2022-11-09T10:16:28.886Z,16.42
2022-11-09T10:21:23.448Z,15.10
2022-11-09T10:24:09.859Z,19.15
2022-11-09T10:26:46.465Z,14.48
2022-11-09T10:29:26.124Z,17.67
2022-11-09T10:31:58.729Z,16.13
2022-11-09T10:34:40.726Z,15.05
2022-11-09T10:37:10.706Z,15.60
2022-11-09T10:39:45.227Z,16.02
2022-11-09T10:42:12.577Z,13.13
2022-11-09T10:44:39.934Z,16.00
2022-11-09T10:47:11.872Z,13.10
2022-11-09T10:49:39.487Z,13.02
2022-11-09T10:52:07.385Z,13.43
2022-11-09T10:54:37.847Z,13.45
2022-11-09T10:57:11.892Z,14.90
2022-11-09T10:59:52.939Z,12.80
2022-11-09T11:04:50.495Z,10.93
2022-11-09T11:07:22.390Z,15.25
2022-11-09T11:09:49.661Z,15.00
2022-11-09T11:12:20.327Z,13.20
2022-11-09T11:14:47.680Z,13.77
2022-11-09T11:17:25.305Z,12.77
2022-11-09T11:19:52.555Z,11.70
2022-11-09T11:22:28.724Z,14.70
2022-11-09T11:25:03.312Z,15.55
2022-11-09T11:27:36.886Z,12.55
2022-11-09T11:30:28.713Z,12.13
2022-11-09T11:32:56.266Z,15.48
2022-11-09T11:35:27.134Z,15.40
2022-11-09T11:38:13.124Z,15.65
2022-11-09T11:40:46.484Z,13.82
2022-11-09T11:43:32.782Z,15.05
2022-11-09T11:46:03.145Z,17.00
2022-11-09T11:48:30.383Z,16.70
2022-11-09T11:51:06.941Z,14.85
2022-11-09T11:53:49.579Z,16.33
2022-11-09T11:56:22.149Z,19.33
2022-11-09T11:59:15.967Z,16.45
2022-11-09T12:01:45.809Z,21.65
2022-11-09T12:04:32.472Z,20.67
2022-11-09T12:07:15.029Z,19.55
2022-11-09T12:10:14.782Z,21.33
2022-11-09T12:13:00.839Z,20.30
2022-11-09T12:15:51.658Z,20.08
2022-11-09T12:18:30.083Z,17.25
2022-11-09T12:21:17.097Z,16.52
2022-11-09T12:23:50.656Z,21.63
2022-11-09T12:26:33.208Z,18.42
2022-11-09T12:29:19.234Z,16.00
2022-11-09T12:31:55.225Z,25.35
2022-11-09T12:34:22.572Z,21.45
2022-11-09T12:37:03.064Z,16.08
2022-11-09T12:39:33.769Z,18.45
2022-11-09T12:42:04.970Z,18.83
2022-11-09T12:44:38.044Z,22.25
2022-11-09T12:47:16.788Z,18.17
2022-11-09T12:49:45.867Z,17.95
2022-11-09T12:52:15.179Z,16.25
2022-11-09T12:54:44.864Z,21.88
2022-11-09T12:57:14.787Z,23.40
2022-11-09T12:59:50.290Z,20.27
2022-11-09T13:02:23.019Z,18.40
2022-11-09T13:04:57.390Z,19.38
2022-11-09T13:07:40.222Z,22.88
2022-11-09T13:10:21.691Z,21.35
2022-11-09T13:12:49.263Z,18.83
2022-11-09T13:15:24.390Z,16.65
2022-11-09T13:18:02.561Z,20.50
2022-11-09T13:23:59.490Z,22.73
2022-11-09T13:26:23.145Z,21.48
2022-11-09T13:29:08.244Z,17.92
2022-11-09T13:31:54.431Z,18.70
2022-11-09T13:34:40.218Z,20.63
2022-11-09T13:37:26.347Z,21.63
2022-11-09T13:39:53.645Z,19.48
2022-11-09T13:42:32.377Z,22.38
2022-11-09T13:45:25.775Z,23.30
2022-11-09T13:47:53.596Z,25.15
2022-11-09T13:50:22.470Z,23.30
2022-11-09T13:52:51.699Z,20.60
2022-11-09T13:55:39.240Z,24.30
2022-11-09T13:58:25.401Z,21.85
2022-11-09T14:00:52.729Z,22.80
2022-11-09T14:03:21.644Z,20.25
2022-11-09T14:05:53.609Z,21.95
2022-11-09T14:08:33.930Z,26.90
2022-11-09T14:11:18.989Z,24.63
2022-11-09T14:13:46.227Z,22.27
2022-11-09T14:16:13.431Z,23.00
2022-11-09T14:18:43.407Z,22.17
2022-11-09T14:21:13.779Z,23.45
2022-11-09T14:23:41.086Z,27.83
2022-11-09T14:26:16.654Z,23.50
2022-11-09T14:28:43.914Z,22.77
2022-11-09T14:31:23.377Z,22.77
2022-11-09T14:34:01.463Z,21.48
2022-11-09T14:36:29.917Z,25.60
2022-11-09T14:38:58.609Z,25.75
2022-11-09T14:41:26.985Z,24.83
2022-11-09T14:43:55.705Z,26.15
2022-11-09T14:46:24.236Z,24.38
2022-11-09T14:48:52.747Z,25.45
2022-11-09T14:51:20.764Z,27.70
2022-11-09T14:53:48.653Z,23.60
2022-11-09T14:56:17.330Z,28.48
2022-11-09T14:58:45.552Z,26.58
2022-11-09T15:01:20.230Z,33.83
2022-11-09T15:04:06.170Z,47.10
2022-11-09T15:06:34.158Z,31.80
2022-11-09T15:09:02.664Z,31.25
2022-11-09T15:11:35.137Z,25.95
2022-11-09T15:14:12.508Z,30.92
2022-11-09T15:16:39.842Z,25.25
2022-11-09T15:19:07.151Z,25.90
2022-11-09T15:21:36.227Z,26.27
2022-11-09T15:24:05.216Z,27.48
2022-11-09T15:26:40.101Z,27.35
2022-11-09T15:29:26.057Z,23.40
2022-11-09T15:31:59.341Z,24.98
2022-11-09T15:34:28.418Z,28.20
2022-11-09T15:36:56.137Z,28.27
2022-11-09T15:39:24.610Z,26.75
2022-11-09T15:41:51.915Z,29.67
2022-11-09T15:44:20.716Z,26.25
2022-11-09T15:46:50.379Z,27.35
2022-11-09T15:49:17.640Z,26.38
2022-11-09T15:51:45.409Z,25.73
2022-11-09T15:54:13.367Z,29.23
2022-11-09T15:56:40.643Z,30.55
2022-11-09T15:59:08.548Z,27.95
2022-11-09T16:01:36.205Z,30.30
2022-11-09T16:04:03.608Z,29.55
2022-11-09T16:06:31.118Z,29.30
2022-11-09T16:08:58.424Z,28.08
2022-11-09T16:11:25.689Z,31.38
2022-11-09T16:13:53.057Z,29.65
2022-11-09T16:16:20.334Z,29.73
2022-11-09T16:18:47.586Z,26.38
2022-11-09T16:21:17.254Z,24.95
2022-11-09T16:23:44.612Z,27.40
2022-11-09T16:26:14.371Z,28.70
2022-11-09T16:28:43.240Z,29.80
2022-11-09T16:31:12.448Z,26.65
2022-11-09T16:33:40.230Z,26.42
2022-11-09T16:36:10.559Z,31.48
2022-11-09T16:38:39.857Z,26.73
2022-11-09T16:41:07.209Z,31.73
2022-11-09T16:43:37.123Z,26.58
2022-11-09T16:46:04.906Z,26.50
2022-11-09T16:48:35.534Z,26.60
2022-11-09T16:51:03.092Z,28.27
2022-11-09T16:53:30.483Z,27.60
2022-11-09T16:55:57.910Z,29.88
2022-11-09T16:58:25.282Z,27.08
2022-11-09T17:01:10.482Z,30.65
2022-11-09T17:03:39.184Z,28.90
2022-11-09T17:06:11.232Z,27.20
2022-11-09T17:08:39.393Z,28.10
2022-11-09T17:11:11.001Z,28.48
2022-11-09T17:13:38.717Z,32.33
2022-11-09T17:16:07.115Z,26.55
2022-11-09T17:18:34.458Z,25.98
2022-11-09T17:21:01.831Z,29.52
2022-11-09T17:23:29.108Z,30.48
2022-11-09T17:25:57.527Z,25.52
2022-11-09T17:28:25.092Z,32.00
2022-11-09T17:30:52.576Z,29.10
2022-11-09T17:33:20.154Z,29.75
2022-11-09T17:35:47.683Z,25.70
2022-11-09T17:38:14.981Z,29.48
2022-11-09T17:40:42.274Z,30.95
2022-11-09T17:43:09.531Z,31.70
2022-11-09T17:45:36.816Z,27.38
2022-11-09T17:48:04.640Z,29.48
2022-11-09T17:50:31.958Z,28.58
2022-11-09T17:52:59.377Z,31.48
2022-11-09T17:55:26.719Z,29.83
2022-11-09T17:57:53.971Z,29.73
2022-11-09T18:00:23.432Z,31.38
2022-11-09T18:02:50.705Z,31.02
2022-11-09T18:05:17.978Z,30.23
2022-11-09T18:07:45.356Z,35.55
2022-11-09T18:10:12.709Z,33.30
2022-11-09T18:12:39.994Z,34.17
2022-11-09T18:15:07.624Z,34.67
2022-11-09T18:17:34.902Z,34.90
2022-11-09T18:20:02.219Z,35.67
2022-11-09T18:22:29.485Z,31.85
2022-11-09T18:24:56.736Z,31.52
2022-11-09T18:27:29.946Z,28.73
2022-11-09T18:29:58.107Z,32.47
2022-11-09T18:32:25.383Z,32.53
2022-11-09T18:34:52.716Z,31.17
2022-11-09T18:37:20.008Z,32.70
2022-11-09T18:39:47.331Z,39.00
2022-11-09T18:42:14.621Z,35.17
2022-11-09T18:44:41.898Z,36.17
2022-11-09T18:47:09.768Z,31.10
2022-11-09T18:49:37.210Z,34.10
2022-11-09T18:52:04.531Z,32.42
2022-11-09T18:54:32.542Z,34.25
2022-11-09T18:56:59.856Z,34.58
2022-11-09T18:59:27.183Z,34.22
2022-11-09T19:01:54.576Z,34.90
2022-11-09T19:04:22.355Z,34.70
2022-11-09T19:06:49.757Z,36.70
2022-11-09T19:09:29.474Z,31.50
2022-11-09T19:11:57.255Z,33.95
2022-11-09T19:14:25.109Z,34.75
2022-11-09T19:16:52.422Z,36.70
2022-11-09T19:19:19.813Z,34.60
2022-11-09T19:21:52.044Z,36.45
2022-11-09T19:24:20.903Z,39.45
2022-11-09T19:26:49.647Z,39.22
2022-11-09T19:29:20.030Z,34.17
2022-11-09T19:31:48.680Z,36.28
2022-11-09T19:34:20.072Z,37.00
2022-11-09T19:36:47.398Z,38.22
2022-11-09T19:39:15.486Z,35.33
2022-11-09T19:41:42.743Z,37.00
2022-11-09T19:44:12.861Z,40.03
2022-11-09T19:46:40.210Z,38.45
2022-11-09T19:49:09.320Z,37.47
2022-11-09T19:51:37.231Z,38.22
2022-11-09T19:54:06.023Z,36.28
2022-11-09T19:56:34.081Z,41.08
2022-11-09T19:59:02.772Z,42.53
2022-11-09T20:01:30.990Z,39.60
2022-11-09T20:04:05.148Z,39.95
2022-11-09T20:06:36.793Z,38.55
2022-11-09T20:09:05.480Z,41.70
2022-11-09T20:12:05.296Z,39.78
2022-11-09T20:14:32.717Z,40.17
2022-11-09T20:17:03.388Z,42.67
2022-11-09T20:19:31.081Z,43.40
2022-11-09T20:21:58.376Z,42.78
2022-11-09T20:24:25.662Z,46.72
2022-11-09T20:26:52.961Z,43.75
2022-11-09T20:29:20.669Z,42.15
2022-11-09T20:31:47.915Z,44.88
2022-11-09T20:34:23.485Z,46.65
2022-11-09T20:36:50.898Z,49.70
2022-11-09T20:39:18.325Z,48.55
2022-11-09T20:41:45.821Z,50.70
2022-11-09T20:44:13.505Z,49.50
2022-11-09T20:46:40.788Z,48.22
2022-11-09T20:49:09.259Z,53.47
2022-11-09T20:51:36.515Z,50.55
2022-11-09T20:54:07.257Z,53.10
2022-11-09T20:59:02.115Z,53.10
2022-11-09T21:01:29.433Z,54.38
2022-11-09T21:03:56.812Z,53.25
2022-11-09T21:06:24.076Z,57.13
2022-11-09T21:08:52.543Z,57.67
2022-11-09T21:11:20.531Z,55.60
2022-11-09T21:13:51.382Z,53.60
2022-11-09T21:16:19.654Z,57.83
2022-11-09T21:18:47.028Z,58.95
2022-11-09T21:21:18.393Z,54.95
2022-11-09T21:24:04.419Z,55.53
2022-11-09T21:26:50.655Z,57.88
2022-11-09T21:29:51.488Z,59.85
2022-11-09T21:32:22.154Z,55.38
2022-11-09T21:34:49.577Z,58.90
2022-11-09T21:37:16.841Z,55.45
2022-11-09T21:39:44.517Z,55.65
2022-11-09T21:42:12.124Z,54.17
2022-11-09T21:44:39.761Z,57.03
2022-11-09T21:47:07.618Z,56.67
2022-11-09T21:49:34.911Z,56.35
2022-11-09T21:52:03.518Z,58.70
2022-11-09T21:54:30.976Z,56.50
2022-11-09T21:56:58.261Z,59.33
2022-11-09T21:59:25.568Z,52.70
2022-11-09T22:01:53.010Z,58.22
2022-11-09T22:04:20.361Z,58.63
2022-11-09T22:06:47.657Z,59.47
2022-11-09T22:09:19.039Z,60.72
2022-11-09T22:12:05.515Z,58.78
2022-11-09T22:14:51.256Z,59.08
2022-11-09T22:17:18.507Z,58.67
2022-11-09T22:20:04.212Z,58.05
2022-11-09T22:22:33.600Z,62.20
2022-11-09T22:25:00.923Z,60.17
2022-11-09T22:27:30.193Z,58.17
2022-11-09T22:29:57.461Z,57.70
2022-11-09T22:32:24.709Z,56.13
2022-11-09T22:34:51.980Z,58.05
2022-11-09T22:37:19.338Z,67.97
2022-11-09T22:39:47.661Z,58.60
2022-11-09T22:42:15.223Z,61.78
2022-11-09T22:44:42.531Z,66.35
2022-11-09T22:47:09.876Z,61.45
2022-11-09T22:49:37.144Z,64.10
2022-11-09T22:52:05.103Z,63.15
2022-11-09T22:54:32.432Z,60.40
2022-11-09T22:56:59.724Z,62.35
2022-11-09T22:59:27.047Z,60.72
2022-11-09T23:01:54.331Z,59.85
2022-11-09T23:04:21.678Z,66.47
2022-11-09T23:06:49.056Z,63.70
2022-11-09T23:09:16.351Z,60.63
2022-11-09T23:11:43.608Z,61.38
2022-11-09T23:14:12.117Z,62.67
2022-11-09T23:16:39.462Z,67.75
2022-11-09T23:19:06.736Z,63.97
2022-11-09T23:21:35.226Z,66.63
2022-11-09T23:24:03.923Z,70.05
2022-11-09T23:26:32.685Z,66.13
2022-11-09T23:29:00.362Z,66.88
2022-11-09T23:31:27.803Z,73.07
2022-11-09T23:33:56.441Z,66.45
2022-11-09T23:36:24.623Z,65.93
2022-11-09T23:38:53.054Z,63.30
2022-11-09T23:41:20.669Z,64.15
2022-11-09T23:43:49.797Z,75.03
2022-11-09T23:46:18.102Z,64.70
2022-11-09T23:48:45.459Z,60.67
2022-11-09T23:51:12.846Z,64.47
2022-11-09T23:53:40.406Z,63.08
2022-11-09T23:56:09.065Z,67.50
2022-11-09T23:58:36.365Z,62.13
